createdAt,value
2022-11-16T00:02:16.112Z,81.46
2022-11-16T00:05:18.805Z,81.51
2022-11-16T00:08:20.509Z,81.55
2022-11-16T00:11:22.229Z,81.48
2022-11-16T00:14:26.715Z,81.50
2022-11-16T00:17:28.415Z,81.53
2022-11-16T00:20:30.137Z,81.57
2022-11-16T00:23:34.505Z,81.61
2022-11-16T00:26:36.189Z,81.75
2022-11-16T00:29:37.987Z,81.78
2022-11-16T00:32:39.681Z,81.85
2022-11-16T00:35:41.700Z,81.96
2022-11-16T00:38:43.453Z,82.00
2022-11-16T00:41:48.337Z,81.89
2022-11-16T00:44:50.128Z,81.70
2022-11-16T00:47:55.277Z,81.54
2022-11-16T00:51:00.941Z,81.44
2022-11-16T00:54:04.463Z,81.62
2022-11-16T00:57:08.065Z,81.65
2022-11-16T01:00:11.112Z,81.60
2022-11-16T01:03:12.989Z,81.52
2022-11-16T01:06:16.563Z,81.40
2022-11-16T01:09:18.265Z,81.31
2022-11-16T01:12:22.477Z,81.26
2022-11-16T01:15:26.342Z,81.19
2022-11-16T01:18:27.994Z,81.19
2022-11-16T01:21:29.883Z,81.15
2022-11-16T01:24:31.867Z,81.10
2022-11-16T01:27:33.760Z,81.09
2022-11-16T01:30:37.313Z,81.08
2022-11-16T01:33:42.610Z,81.10
2022-11-16T01:36:52.201Z,81.09
2022-11-16T01:39:54.199Z,81.08
2022-11-16T01:42:56.510Z,81.07
2022-11-16T01:45:58.347Z,81.08
2022-11-16T01:49:10.055Z,81.05
2022-11-16T01:52:16.657Z,81.11
2022-11-16T01:55:18.565Z,81.11
2022-11-16T01:58:35.475Z,81.21
2022-11-16T02:01:49.336Z,81.16
2022-11-16T02:04:54.375Z,81.12
2022-11-16T02:08:44.381Z,81.08
2022-11-16T02:12:05.352Z,81.06
2022-11-16T02:15:55.707Z,81.07
2022-11-16T02:19:30.350Z,81.03
2022-11-16T02:23:16.639Z,81.05
2022-11-16T02:26:55.664Z,81.12
2022-11-16T02:30:00.553Z,81.15
2022-11-16T02:33:11.617Z,81.13
2022-11-16T02:36:20.087Z,81.15
2022-11-16T02:39:26.616Z,81.17
2022-11-16T02:42:34.654Z,81.18
2022-11-16T02:45:42.210Z,81.18
2022-11-16T02:48:49.772Z,81.19
2022-11-16T02:51:52.837Z,81.22
2022-11-16T02:54:55.240Z,81.25
2022-11-16T02:58:01.323Z,81.27
2022-11-16T03:01:12.465Z,81.30
2022-11-16T03:04:23.642Z,81.31
2022-11-16T03:07:30.230Z,81.34
2022-11-16T03:10:54.766Z,81.38
2022-11-16T03:14:01.913Z,81.38
2022-11-16T03:17:07.493Z,81.38
2022-11-16T03:20:14.752Z,81.40
2022-11-16T03:23:17.796Z,81.40
2022-11-16T03:26:24.541Z,81.40
2022-11-16T03:29:36.050Z,81.40
2022-11-16T03:33:00.117Z,81.40
2022-11-16T03:36:31.512Z,81.42
2022-11-16T03:39:37.215Z,81.44
2022-11-16T03:42:41.143Z,81.44
2022-11-16T03:45:45.042Z,81.44
2022-11-16T03:48:46.932Z,81.45
2022-11-16T03:51:56.861Z,81.50
2022-11-16T03:54:58.618Z,81.49
2022-11-16T03:58:00.593Z,81.50
2022-11-16T04:01:02.956Z,81.53
2022-11-16T04:04:05.390Z,81.55
2022-11-16T04:07:26.926Z,81.55
2022-11-16T04:10:47.329Z,81.56
2022-11-16T04:14:09.480Z,81.53
2022-11-16T04:17:34.359Z,81.53
2022-11-16T04:20:54.762Z,81.53
2022-11-16T04:24:11.670Z,81.54
2022-11-16T04:27:34.035Z,81.55
2022-11-16T04:30:54.856Z,81.56
2022-11-16T04:34:15.295Z,81.55
2022-11-16T04:37:39.356Z,81.54
2022-11-16T04:40:41.093Z,81.53
2022-11-16T04:43:44.354Z,81.54
2022-11-16T04:47:05.056Z,81.54
2022-11-16T04:50:07.811Z,81.57
2022-11-16T04:53:11.033Z,81.57
2022-11-16T04:56:19.213Z,81.57
2022-11-16T04:59:21.919Z,81.58
2022-11-16T05:02:23.639Z,81.61
2022-11-16T05:05:28.476Z,81.63
2022-11-16T05:08:30.757Z,81.61
2022-11-16T05:11:32.854Z,81.61
2022-11-16T05:14:34.606Z,81.58
2022-11-16T05:17:36.447Z,81.60
2022-11-16T05:21:01.349Z,81.63
2022-11-16T05:24:24.532Z,81.64
2022-11-16T05:27:28.365Z,81.66
2022-11-16T05:30:30.459Z,81.68
2022-11-16T05:33:33.102Z,81.73
2022-11-16T05:36:35.181Z,81.81
2022-11-16T05:39:37.332Z,81.83
2022-11-16T05:42:39.096Z,81.83
2022-11-16T05:45:42.249Z,81.86
2022-11-16T05:48:43.840Z,81.89
2022-11-16T05:51:46.556Z,81.93
2022-11-16T05:54:49.293Z,81.95
2022-11-16T05:57:51.317Z,81.96
2022-11-16T06:00:53.082Z,81.98
2022-11-16T06:03:54.885Z,82.00
2022-11-16T06:06:56.848Z,82.00
2022-11-16T06:10:02.990Z,82.01
2022-11-16T06:13:05.840Z,82.08
2022-11-16T06:16:08.107Z,82.07
2022-11-16T06:19:09.921Z,82.08
2022-11-16T06:22:11.833Z,82.07
2022-11-16T06:25:13.582Z,82.08
2022-11-16T06:28:17.656Z,82.06
2022-11-16T06:31:19.464Z,82.04
2022-11-16T06:34:21.171Z,82.10
2022-11-16T06:37:23.145Z,82.12
2022-11-16T06:40:25.115Z,82.15
2022-11-16T06:43:27.040Z,82.18
2022-11-16T06:46:29.168Z,82.19
2022-11-16T06:49:32.073Z,82.18
2022-11-16T06:52:35.550Z,82.20
2022-11-16T06:55:37.715Z,82.27
2022-11-16T06:58:41.677Z,82.28
2022-11-16T07:01:44.870Z,82.29
2022-11-16T07:04:48.089Z,82.32
2022-11-16T07:07:56.190Z,82.36
2022-11-16T07:11:04.263Z,82.35
2022-11-16T07:14:06.416Z,82.37
2022-11-16T07:17:09.822Z,82.45
2022-11-16T07:20:11.779Z,82.47
2022-11-16T07:23:14.412Z,82.51
2022-11-16T07:26:19.262Z,82.54
2022-11-16T07:29:29.186Z,82.56
2022-11-16T07:32:59.941Z,82.59
2022-11-16T07:36:21.640Z,82.60
2022-11-16T07:39:23.257Z,82.63
2022-11-16T07:42:24.902Z,82.64
2022-11-16T07:45:35.955Z,82.68
2022-11-16T07:48:42.620Z,82.72
2022-11-16T07:51:53.462Z,82.76
2022-11-16T07:55:07.526Z,82.81
2022-11-16T07:58:10.046Z,82.82
2022-11-16T08:01:15.311Z,82.81
2022-11-16T08:04:17.762Z,82.84
2022-11-16T08:07:19.918Z,82.85
2022-11-16T08:10:26.510Z,82.87
2022-11-16T08:13:31.462Z,82.89
2022-11-16T08:16:33.440Z,82.93
2022-11-16T08:19:41.958Z,82.84
2022-11-16T08:22:44.610Z,82.74
2022-11-16T08:25:46.507Z,82.70
2022-11-16T08:28:53.103Z,82.64
2022-11-16T08:31:58.365Z,82.50
2022-11-16T08:35:00.362Z,82.41
2022-11-16T08:38:02.631Z,82.39
2022-11-16T08:41:04.794Z,82.32
2022-11-16T08:44:07.264Z,82.31
2022-11-16T08:47:10.777Z,82.24
2022-11-16T08:50:20.075Z,82.19
2022-11-16T08:53:21.744Z,82.15
2022-11-16T08:56:26.492Z,82.15
2022-11-16T08:59:29.057Z,82.15
2022-11-16T09:02:38.311Z,82.17
2022-11-16T09:05:41.921Z,82.20
2022-11-16T09:08:45.474Z,82.19
2022-11-16T09:11:47.263Z,82.17
2022-11-16T09:14:48.989Z,82.16
2022-11-16T09:17:54.206Z,82.15
2022-11-16T09:20:56.621Z,82.18
2022-11-16T09:23:58.553Z,82.20
2022-11-16T09:27:00.870Z,82.18
2022-11-16T09:30:03.119Z,82.16
2022-11-16T09:33:05.256Z,82.15
2022-11-16T09:36:08.770Z,82.05
2022-11-16T09:39:30.039Z,81.97
2022-11-16T09:42:36.063Z,81.85
2022-11-16T09:45:54.513Z,81.85
2022-11-16T09:48:58.915Z,81.78
2022-11-16T09:52:04.130Z,81.74
2022-11-16T09:55:23.473Z,81.73
2022-11-16T09:58:35.226Z,81.70
2022-11-16T10:01:52.070Z,81.69
2022-11-16T10:05:20.986Z,81.71
2022-11-16T10:08:35.639Z,81.74
2022-11-16T10:11:43.946Z,81.75
2022-11-16T10:15:22.931Z,81.70
2022-11-16T10:18:49.251Z,81.72
2022-11-16T10:22:06.007Z,81.72
2022-11-16T10:25:29.109Z,81.66
2022-11-16T10:28:57.503Z,81.58
2022-11-16T10:32:14.709Z,81.52
2022-11-16T10:35:23.631Z,81.47
2022-11-16T10:38:30.427Z,81.39
2022-11-16T10:41:38.665Z,81.37
2022-11-16T10:44:48.621Z,81.36
2022-11-16T10:48:02.665Z,81.33
2022-11-16T10:51:07.005Z,81.27
2022-11-16T10:54:16.797Z,81.20
2022-11-16T10:57:18.984Z,81.18
2022-11-16T11:00:33.985Z,81.19
2022-11-16T11:03:36.218Z,81.21
2022-11-16T11:06:39.564Z,81.09
2022-11-16T11:09:43.088Z,81.08
2022-11-16T11:13:05.854Z,80.86
2022-11-16T11:16:17.671Z,80.79
2022-11-16T11:19:29.026Z,80.71
2022-11-16T11:22:42.042Z,80.61
2022-11-16T11:25:55.507Z,80.54
2022-11-16T11:29:00.783Z,80.52
2022-11-16T11:32:07.294Z,80.48
2022-11-16T11:35:26.386Z,80.44
2022-11-16T11:38:28.671Z,80.37
2022-11-16T11:41:36.689Z,80.36
2022-11-16T11:44:49.878Z,80.34
2022-11-16T11:47:58.424Z,80.37
2022-11-16T11:51:11.502Z,80.36
2022-11-16T11:54:22.380Z,80.29
2022-11-16T11:57:25.142Z,80.20
2022-11-16T12:00:27.092Z,80.28
2022-11-16T12:03:43.839Z,80.24
2022-11-16T12:06:56.633Z,80.25
2022-11-16T12:10:16.241Z,80.28
2022-11-16T12:13:42.533Z,80.29
2022-11-16T12:16:57.240Z,80.28
2022-11-16T12:20:07.880Z,80.30
2022-11-16T12:23:24.653Z,80.24
2022-11-16T12:26:34.175Z,80.32
2022-11-16T12:30:07.343Z,80.30
2022-11-16T12:33:22.818Z,80.23
2022-11-16T12:36:39.529Z,80.19
2022-11-16T12:39:52.497Z,80.20
2022-11-16T12:43:20.308Z,80.11
2022-11-16T12:46:34.467Z,80.03
2022-11-16T12:49:48.144Z,80.00
2022-11-16T12:53:24.067Z,80.04
2022-11-16T12:56:48.683Z,79.93
2022-11-16T13:00:11.217Z,79.91
2022-11-16T13:03:19.974Z,80.01
2022-11-16T13:06:30.012Z,80.04
2022-11-16T13:09:37.046Z,80.11
2022-11-16T13:12:39.441Z,80.02
2022-11-16T13:15:42.689Z,80.02
2022-11-16T13:18:44.584Z,80.05
2022-11-16T13:22:13.215Z,80.12
2022-11-16T13:25:35.829Z,80.10
2022-11-16T13:28:48.413Z,80.08
2022-11-16T13:31:50.096Z,80.10
2022-11-16T13:34:52.607Z,80.09
2022-11-16T13:37:55.827Z,80.04
2022-11-16T13:41:27.320Z,80.05
2022-11-16T13:44:29.503Z,80.13
2022-11-16T13:47:31.316Z,80.09
2022-11-16T13:50:37.943Z,80.08
2022-11-16T13:54:43.049Z,80.10
2022-11-16T13:57:35.109Z,80.20
2022-11-16T14:00:39.938Z,80.17
2022-11-16T14:03:44.409Z,80.20
2022-11-16T14:06:46.207Z,80.22
2022-11-16T14:09:49.345Z,80.28
2022-11-16T14:12:53.791Z,80.27
2022-11-16T14:16:14.275Z,80.29
2022-11-16T14:19:40.750Z,80.23
2022-11-16T14:23:15.539Z,80.22
2022-11-16T14:26:44.735Z,80.19
2022-11-16T14:29:55.651Z,80.19
2022-11-16T14:32:58.052Z,80.22
2022-11-16T14:36:03.867Z,80.21
2022-11-16T14:39:27.493Z,80.16
2022-11-16T14:42:48.123Z,80.17
2022-11-16T14:45:59.901Z,80.10
2022-11-16T14:49:03.311Z,80.13
2022-11-16T14:52:07.647Z,80.11
2022-11-16T14:55:17.621Z,80.10
2022-11-16T14:58:21.590Z,80.13
2022-11-16T15:01:27.172Z,80.08
2022-11-16T15:04:29.725Z,79.98
2022-11-16T15:07:32.063Z,79.96
2022-11-16T15:10:33.755Z,79.92
2022-11-16T15:13:35.894Z,79.95
2022-11-16T15:16:49.464Z,79.91
2022-11-16T15:19:54.595Z,79.85
2022-11-16T15:22:59.642Z,79.80
2022-11-16T15:26:03.004Z,79.84
2022-11-16T15:29:04.996Z,79.90
2022-11-16T15:32:16.259Z,79.93
2022-11-16T15:35:28.856Z,79.95
2022-11-16T15:38:32.472Z,79.93
2022-11-16T15:41:38.891Z,79.95
2022-11-16T15:44:42.799Z,79.97
2022-11-16T15:47:46.517Z,79.99
2022-11-16T15:51:05.067Z,80.00
2022-11-16T15:54:54.647Z,79.97
2022-11-16T15:58:17.617Z,79.94
2022-11-16T16:01:20.352Z,79.96
2022-11-16T16:04:24.014Z,80.00
2022-11-16T16:07:37.270Z,80.01
2022-11-16T16:10:39.146Z,80.01
2022-11-16T16:13:43.596Z,80.03
2022-11-16T16:16:58.560Z,80.02
2022-11-16T16:20:03.183Z,80.04
2022-11-16T16:23:15.179Z,80.02
2022-11-16T16:26:17.989Z,80.04
2022-11-16T16:29:19.700Z,80.07
2022-11-16T16:32:24.208Z,80.05
2022-11-16T16:35:26.527Z,80.01
2022-11-16T16:38:28.404Z,79.95
2022-11-16T16:41:30.021Z,79.98
2022-11-16T16:44:31.981Z,79.88
2022-11-16T16:47:33.641Z,79.84
2022-11-16T16:50:35.854Z,79.80
2022-11-16T16:53:37.593Z,79.74
2022-11-16T16:56:39.651Z,79.75
2022-11-16T16:59:45.277Z,79.73
2022-11-16T17:02:47.547Z,79.73
2022-11-16T17:05:52.824Z,79.72
2022-11-16T17:08:55.100Z,79.70
2022-11-16T17:11:59.859Z,79.68
2022-11-16T17:15:04.032Z,79.72
2022-11-16T17:18:06.262Z,79.70
2022-11-16T17:21:09.067Z,79.67
2022-11-16T17:24:11.133Z,79.69
2022-11-16T17:27:12.963Z,79.66
2022-11-16T17:30:15.196Z,79.63
2022-11-16T17:33:16.939Z,79.66
2022-11-16T17:36:19.411Z,79.69
2022-11-16T17:39:24.602Z,79.71
2022-11-16T17:42:26.312Z,79.70
2022-11-16T17:45:28.142Z,79.70
2022-11-16T17:48:30.278Z,79.71
2022-11-16T17:51:32.206Z,79.74
2022-11-16T17:54:34.575Z,79.76
2022-11-16T17:57:36.793Z,79.77
2022-11-16T18:00:38.662Z,79.73
2022-11-16T18:03:40.932Z,79.75
2022-11-16T18:06:42.608Z,79.70
2022-11-16T18:09:44.441Z,79.73
2022-11-16T18:12:46.181Z,79.56
2022-11-16T18:15:47.916Z,79.48
2022-11-16T18:18:56.595Z,79.36
2022-11-16T18:21:58.642Z,79.31
2022-11-16T18:25:00.527Z,79.18
2022-11-16T18:28:02.576Z,79.11
2022-11-16T18:31:14.762Z,79.06
2022-11-16T18:34:17.146Z,78.90
2022-11-16T18:37:19.067Z,79.04
2022-11-16T18:40:21.204Z,78.75
2022-11-16T18:43:23.196Z,78.57
2022-11-16T18:46:30.804Z,78.64
2022-11-16T18:49:32.661Z,78.28
2022-11-16T18:52:34.490Z,78.10
2022-11-16T18:55:36.167Z,77.98
2022-11-16T18:58:53.950Z,77.83
2022-11-16T19:01:55.860Z,77.81
2022-11-16T19:04:57.725Z,77.79
2022-11-16T19:08:00.273Z,77.68
2022-11-16T19:11:10.949Z,77.64
2022-11-16T19:14:12.876Z,77.54
2022-11-16T19:17:15.675Z,77.53
2022-11-16T19:20:17.872Z,77.46
2022-11-16T19:23:19.591Z,77.32
2022-11-16T19:26:24.099Z,77.23
2022-11-16T19:29:25.999Z,77.22
2022-11-16T19:32:27.995Z,77.07
2022-11-16T19:35:29.980Z,76.98
2022-11-16T19:38:31.841Z,76.92
2022-11-16T19:41:34.015Z,76.88
2022-11-16T19:44:36.502Z,76.88
2022-11-16T19:47:39.026Z,77.02
2022-11-16T19:50:41.847Z,76.93
2022-11-16T19:53:45.019Z,76.78
2022-11-16T19:56:50.577Z,76.66
2022-11-16T19:59:55.862Z,76.60
2022-11-16T20:02:57.772Z,76.51
2022-11-16T20:06:14.663Z,76.48
2022-11-16T20:09:17.067Z,76.47
2022-11-16T20:12:19.087Z,76.40
2022-11-16T20:15:22.922Z,76.53
2022-11-16T20:18:24.731Z,76.43
2022-11-16T20:21:34.667Z,76.26
2022-11-16T20:24:36.577Z,76.18
2022-11-16T20:27:38.864Z,76.21
2022-11-16T20:30:48.722Z,76.19
2022-11-16T20:33:54.241Z,76.09
2022-11-16T20:36:56.135Z,76.19
2022-11-16T20:39:57.950Z,76.13
2022-11-16T20:43:00.854Z,76.05
2022-11-16T20:46:02.786Z,76.03
2022-11-16T20:49:04.657Z,75.96
2022-11-16T20:52:06.569Z,75.89
2022-11-16T20:55:08.990Z,75.82
2022-11-16T20:58:10.937Z,75.86
2022-11-16T21:01:17.807Z,76.04
2022-11-16T21:04:20.034Z,75.95
2022-11-16T21:07:23.559Z,75.91
2022-11-16T21:10:25.747Z,75.91
2022-11-16T21:13:46.139Z,75.93
2022-11-16T21:16:48.101Z,75.94
2022-11-16T21:20:20.079Z,75.95
2022-11-16T21:23:12.835Z,76.05
2022-11-16T21:26:15.109Z,76.05
2022-11-16T21:29:16.731Z,76.13
2022-11-16T21:32:18.408Z,76.15
2022-11-16T21:35:20.342Z,76.19
2022-11-16T21:38:24.667Z,76.23
2022-11-16T21:41:26.810Z,76.16
2022-11-16T21:44:41.082Z,76.17
2022-11-16T21:47:42.671Z,76.21
2022-11-16T21:50:44.310Z,76.25
2022-11-16T21:53:46.138Z,76.22
2022-11-16T21:56:47.776Z,76.25
2022-11-16T21:59:49.413Z,76.24
2022-11-16T22:02:51.118Z,76.25
2022-11-16T22:06:12.215Z,76.24
2022-11-16T22:09:13.812Z,76.21
2022-11-16T22:12:15.459Z,76.23
2022-11-16T22:15:17.398Z,76.26
2022-11-16T22:18:18.993Z,76.28
2022-11-16T22:21:20.629Z,76.23
2022-11-16T22:24:22.266Z,76.27
2022-11-16T22:27:24.157Z,76.29
2022-11-16T22:30:25.787Z,76.25
2022-11-16T22:33:29.208Z,76.22
2022-11-16T22:36:30.858Z,76.23
2022-11-16T22:39:32.592Z,76.22
2022-11-16T22:42:34.240Z,76.24
2022-11-16T22:45:35.885Z,76.24
2022-11-16T22:48:39.014Z,76.22
2022-11-16T22:51:40.666Z,76.26
2022-11-16T22:54:42.375Z,76.28
2022-11-16T22:57:43.976Z,76.27
2022-11-16T23:00:45.554Z,76.29
2022-11-16T23:03:47.576Z,76.31
2022-11-16T23:06:49.479Z,76.36
2022-11-16T23:09:51.205Z,76.38
2022-11-16T23:13:11.299Z,76.37
2022-11-16T23:16:12.895Z,76.35
2022-11-16T23:19:52.542Z,76.37
2022-11-16T23:23:12.742Z,76.39
2022-11-16T23:26:40.855Z,76.40
2022-11-16T23:29:42.931Z,76.33
2022-11-16T23:32:44.666Z,76.39
2022-11-16T23:35:46.305Z,76.41
2022-11-16T23:38:48.086Z,76.42
2022-11-16T23:42:08.590Z,76.44
2022-11-16T23:45:10.267Z,76.41
2022-11-16T23:48:15.788Z,76.40
2022-11-16T23:51:18.173Z,76.39
2022-11-16T23:54:19.829Z,76.45
2022-11-16T23:57:21.398Z,76.45
